sensor_id;sensor_type;location;lat;lon;timestamp;temperature;humidity
13389;DHT22;6764;53.250;10.410;2023-07-29T00:01:30;20.00;99.90
13389;DHT22;6764;53.250;10.410;2023-07-29T00:03:56;19.90;99.90
13389;DHT22;6764;53.250;10.410;2023-07-29T00:06:22;19.90;99.90
13389;DHT22;6764;53.250;10.410;2023-07-29T00:08:47;19.90;99.90
13389;DHT22;6764;53.250;10.410;2023-07-29T00:11:13;19.80;99.90
13389;DHT22;6764;53.250;10.410;2023-07-29T00:13:38;19.80;99.90
13389;DHT22;6764;53.250;10.410;2023-07-29T00:16:04;19.70;99.90
13389;DHT22;6764;53.250;10.410;2023-07-29T00:18:30;19.70;99.90
13389;DHT22;6764;53.250;10.410;2023-07-29T00:20:56;19.70;99.90
13389;DHT22;6764;53.250;10.410;2023-07-29T00:23:23;19.70;99.90
13389;DHT22;6764;53.250;10.410;2023-07-29T00:25:48;19.70;99.90
13389;DHT22;6764;53.250;10.410;2023-07-29T00:28:14;19.60;99.90
13389;DHT22;6764;53.250;10.410;2023-07-29T00:30:39;19.60;99.90
13389;DHT22;6764;53.250;10.410;2023-07-29T00:33:05;19.60;99.90
13389;DHT22;6764;53.250;10.410;2023-07-29T00:35:31;19.60;99.90
13389;DHT22;6764;53.250;10.410;2023-07-29T00:37:56;19.60;99.90
13389;DHT22;6764;53.250;10.410;2023-07-29T00:40:22;19.60;99.90
13389;DHT22;6764;53.250;10.410;2023-07-29T00:42:49;19.50;99.90
13389;DHT22;6764;53.250;10.410;2023-07-29T00:45:14;19.50;99.90
13389;DHT22;6764;53.250;10.410;2023-07-29T00:47:41;19.40;99.90
13389;DHT22;6764;53.250;10.410;2023-07-29T00:50:09;19.40;99.90
13389;DHT22;6764;53.250;10.410;2023-07-29T00:52:35;19.40;99.90
13389;DHT22;6764;53.250;10.410;2023-07-29T00:55:00;19.40;99.90
13389;DHT22;6764;53.250;10.410;2023-07-29T00:57:26;19.30;99.90
13389;DHT22;6764;53.250;10.410;2023-07-29T00:59:53;19.30;99.90
13389;DHT22;6764;53.250;10.410;2023-07-29T01:02:19;19.30;99.90
13389;DHT22;6764;53.250;10.410;2023-07-29T01:04:45;19.20;99.90
13389;DHT22;6764;53.250;10.410;2023-07-29T01:15:11;19.20;99.90
13389;DHT22;6764;53.250;10.410;2023-07-29T01:17:49;19.20;99.90
13389;DHT22;6764;53.250;10.410;2023-07-29T01:20:19;19.20;99.90
13389;DHT22;6764;53.250;10.410;2023-07-29T01:22:46;19.20;99.90
13389;DHT22;6764;53.250;10.410;2023-07-29T01:25:13;19.20;99.90
13389;DHT22;6764;53.250;10.410;2023-07-29T01:27:40;19.20;99.90
13389;DHT22;6764;53.250;10.410;2023-07-29T01:30:06;19.20;99.90
13389;DHT22;6764;53.250;10.410;2023-07-29T01:35:44;19.30;99.90
13389;DHT22;6764;53.250;10.410;2023-07-29T01:38:18;19.30;99.90
13389;DHT22;6764;53.250;10.410;2023-07-29T01:40:48;19.20;99.90
13389;DHT22;6764;53.250;10.410;2023-07-29T01:43:16;19.20;99.90
13389;DHT22;6764;53.250;10.410;2023-07-29T01:45:44;19.20;99.90
13389;DHT22;6764;53.250;10.410;2023-07-29T01:48:09;19.20;99.90
13389;DHT22;6764;53.250;10.410;2023-07-29T01:50:35;19.20;99.90
13389;DHT22;6764;53.250;10.410;2023-07-29T01:53:01;19.20;99.90
13389;DHT22;6764;53.250;10.410;2023-07-29T01:55:26;19.20;99.90
13389;DHT22;6764;53.250;10.410;2023-07-29T01:57:52;19.20;99.90
13389;DHT22;6764;53.250;10.410;2023-07-29T02:00:21;19.10;99.90
13389;DHT22;6764;53.250;10.410;2023-07-29T02:02:46;19.20;99.90
13389;DHT22;6764;53.250;10.410;2023-07-29T02:05:12;19.20;99.90
13389;DHT22;6764;53.250;10.410;2023-07-29T02:07:38;19.10;99.90
13389;DHT22;6764;53.250;10.410;2023-07-29T02:10:03;19.10;99.90
13389;DHT22;6764;53.250;10.410;2023-07-29T02:12:29;19.00;99.90
13389;DHT22;6764;53.250;10.410;2023-07-29T02:14:55;19.00;99.90
13389;DHT22;6764;53.250;10.410;2023-07-29T02:17:20;19.10;99.90
13389;DHT22;6764;53.250;10.410;2023-07-29T02:19:46;19.00;99.90
13389;DHT22;6764;53.250;10.410;2023-07-29T02:22:16;19.00;99.90
13389;DHT22;6764;53.250;10.410;2023-07-29T02:24:42;18.90;99.90
13389;DHT22;6764;53.250;10.410;2023-07-29T02:27:08;18.90;99.90
13389;DHT22;6764;53.250;10.410;2023-07-29T02:29:33;18.80;99.90
13389;DHT22;6764;53.250;10.410;2023-07-29T02:32:02;18.80;99.90
13389;DHT22;6764;53.250;10.410;2023-07-29T02:34:28;18.80;99.90
13389;DHT22;6764;53.250;10.410;2023-07-29T02:36:54;18.70;99.90
13389;DHT22;6764;53.250;10.410;2023-07-29T02:39:20;18.70;99.90
13389;DHT22;6764;53.250;10.410;2023-07-29T02:41:45;18.70;99.90
13389;DHT22;6764;53.250;10.410;2023-07-29T02:44:11;18.70;99.90
13389;DHT22;6764;53.250;10.410;2023-07-29T02:46:37;18.70;99.90
13389;DHT22;6764;53.250;10.410;2023-07-29T02:49:03;18.60;99.90
13389;DHT22;6764;53.250;10.410;2023-07-29T02:51:29;18.60;99.90
13389;DHT22;6764;53.250;10.410;2023-07-29T02:53:55;18.50;99.90
13389;DHT22;6764;53.250;10.410;2023-07-29T02:56:21;18.50;99.90
13389;DHT22;6764;53.250;10.410;2023-07-29T02:58:46;18.50;99.90
13389;DHT22;6764;53.250;10.410;2023-07-29T03:01:12;18.50;99.90
13389;DHT22;6764;53.250;10.410;2023-07-29T03:03:37;18.50;99.90
13389;DHT22;6764;53.250;10.410;2023-07-29T03:06:14;18.50;99.90
13389;DHT22;6764;53.250;10.410;2023-07-29T03:08:40;18.50;99.90
13389;DHT22;6764;53.250;10.410;2023-07-29T03:11:11;18.50;99.90
13389;DHT22;6764;53.250;10.410;2023-07-29T03:13:37;18.50;99.90
13389;DHT22;6764;53.250;10.410;2023-07-29T03:16:10;18.50;99.90
13389;DHT22;6764;53.250;10.410;2023-07-29T03:18:36;18.50;99.90
13389;DHT22;6764;53.250;10.410;2023-07-29T03:21:03;18.50;99.90
13389;DHT22;6764;53.250;10.410;2023-07-29T03:23:29;18.40;99.90
13389;DHT22;6764;53.250;10.410;2023-07-29T03:25:56;18.40;99.90
13389;DHT22;6764;53.250;10.410;2023-07-29T03:28:25;18.40;99.90
13389;DHT22;6764;53.250;10.410;2023-07-29T03:30:53;18.30;99.90
13389;DHT22;6764;53.250;10.410;2023-07-29T03:33:18;18.30;99.90
13389;DHT22;6764;53.250;10.410;2023-07-29T03:35:44;18.40;99.90
13389;DHT22;6764;53.250;10.410;2023-07-29T03:38:11;18.40;99.90
13389;DHT22;6764;53.250;10.410;2023-07-29T03:40:37;18.40;99.90
13389;DHT22;6764;53.250;10.410;2023-07-29T03:43:03;18.50;99.90
13389;DHT22;6764;53.250;10.410;2023-07-29T03:45:28;18.40;99.90
13389;DHT22;6764;53.250;10.410;2023-07-29T03:47:54;18.50;99.90
13389;DHT22;6764;53.250;10.410;2023-07-29T03:50:19;18.50;99.90
13389;DHT22;6764;53.250;10.410;2023-07-29T03:52:45;18.50;99.90
13389;DHT22;6764;53.250;10.410;2023-07-29T03:55:11;18.60;99.90
13389;DHT22;6764;53.250;10.410;2023-07-29T03:57:37;18.60;99.90
13389;DHT22;6764;53.250;10.410;2023-07-29T04:00:03;18.60;99.90
13389;DHT22;6764;53.250;10.410;2023-07-29T04:02:29;18.70;99.90
13389;DHT22;6764;53.250;10.410;2023-07-29T04:04:55;18.70;99.90
13389;DHT22;6764;53.250;10.410;2023-07-29T04:07:20;18.70;99.90
13389;DHT22;6764;53.250;10.410;2023-07-29T04:09:46;18.70;99.90
13389;DHT22;6764;53.250;10.410;2023-07-29T04:12:12;18.70;99.90
13389;DHT22;6764;53.250;10.410;2023-07-29T04:14:37;18.70;99.90
13389;DHT22;6764;53.250;10.410;2023-07-29T04:17:03;18.80;99.90
13389;DHT22;6764;53.250;10.410;2023-07-29T04:19:29;18.70;99.90
13389;DHT22;6764;53.250;10.410;2023-07-29T04:21:54;18.70;99.90
13389;DHT22;6764;53.250;10.410;2023-07-29T04:24:20;18.80;99.90
13389;DHT22;6764;53.250;10.410;2023-07-29T04:26:48;18.80;99.90
13389;DHT22;6764;53.250;10.410;2023-07-29T04:29:14;18.80;99.90
13389;DHT22;6764;53.250;10.410;2023-07-29T04:31:39;18.80;99.90
13389;DHT22;6764;53.250;10.410;2023-07-29T04:34:05;18.80;99.90
13389;DHT22;6764;53.250;10.410;2023-07-29T04:36:31;18.90;99.90
13389;DHT22;6764;53.250;10.410;2023-07-29T04:38:56;18.90;99.90
13389;DHT22;6764;53.250;10.410;2023-07-29T04:41:22;18.90;99.90
13389;DHT22;6764;53.250;10.410;2023-07-29T04:43:47;19.00;99.90
13389;DHT22;6764;53.250;10.410;2023-07-29T04:46:15;19.00;99.90
13389;DHT22;6764;53.250;10.410;2023-07-29T04:48:40;19.10;99.90
13389;DHT22;6764;53.250;10.410;2023-07-29T04:51:06;19.10;99.90
13389;DHT22;6764;53.250;10.410;2023-07-29T04:53:32;19.20;99.90
13389;DHT22;6764;53.250;10.410;2023-07-29T04:55:57;19.40;99.90
13389;DHT22;6764;53.250;10.410;2023-07-29T04:58:23;19.60;99.90
13389;DHT22;6764;53.250;10.410;2023-07-29T05:00:49;19.70;99.90
13389;DHT22;6764;53.250;10.410;2023-07-29T05:03:14;19.80;99.90
13389;DHT22;6764;53.250;10.410;2023-07-29T05:05:40;19.90;99.90
13389;DHT22;6764;53.250;10.410;2023-07-29T05:08:06;20.10;99.90
13389;DHT22;6764;53.250;10.410;2023-07-29T05:10:31;20.10;99.90
13389;DHT22;6764;53.250;10.410;2023-07-29T05:12:57;20.10;99.90
13389;DHT22;6764;53.250;10.410;2023-07-29T05:15:22;20.10;99.90
13389;DHT22;6764;53.250;10.410;2023-07-29T05:17:48;20.20;99.90
13389;DHT22;6764;53.250;10.410;2023-07-29T05:20:14;20.30;99.90
13389;DHT22;6764;53.250;10.410;2023-07-29T05:22:39;20.30;99.90
13389;DHT22;6764;53.250;10.410;2023-07-29T05:25:05;20.30;99.90
13389;DHT22;6764;53.250;10.410;2023-07-29T05:27:31;20.40;99.90
13389;DHT22;6764;53.250;10.410;2023-07-29T05:29:57;20.40;99.90
13389;DHT22;6764;53.250;10.410;2023-07-29T05:32:22;20.50;99.90
13389;DHT22;6764;53.250;10.410;2023-07-29T05:34:48;20.50;99.90
13389;DHT22;6764;53.250;10.410;2023-07-29T05:37:14;20.60;99.90
13389;DHT22;6764;53.250;10.410;2023-07-29T05:39:39;20.70;99.90
13389;DHT22;6764;53.250;10.410;2023-07-29T05:42:05;20.70;99.90
13389;DHT22;6764;53.250;10.410;2023-07-29T05:44:31;20.60;99.90
13389;DHT22;6764;53.250;10.410;2023-07-29T05:46:57;20.70;99.90
13389;DHT22;6764;53.250;10.410;2023-07-29T05:49:23;20.80;99.90
13389;DHT22;6764;53.250;10.410;2023-07-29T05:51:49;20.90;99.90
13389;DHT22;6764;53.250;10.410;2023-07-29T05:54:17;21.20;99.90
13389;DHT22;6764;53.250;10.410;2023-07-29T05:56:43;21.20;99.90
13389;DHT22;6764;53.250;10.410;2023-07-29T05:59:08;21.20;99.90
13389;DHT22;6764;53.250;10.410;2023-07-29T06:01:34;21.30;99.90
13389;DHT22;6764;53.250;10.410;2023-07-29T06:04:00;21.40;99.90
13389;DHT22;6764;53.250;10.410;2023-07-29T06:06:26;21.40;99.90
13389;DHT22;6764;53.250;10.410;2023-07-29T06:08:51;21.50;99.90
13389;DHT22;6764;53.250;10.410;2023-07-29T06:11:17;21.60;99.90
13389;DHT22;6764;53.250;10.410;2023-07-29T06:13:42;21.70;99.90
13389;DHT22;6764;53.250;10.410;2023-07-29T06:16:08;21.80;99.90
13389;DHT22;6764;53.250;10.410;2023-07-29T06:18:34;21.80;99.90
13389;DHT22;6764;53.250;10.410;2023-07-29T06:20:59;21.90;99.90
13389;DHT22;6764;53.250;10.410;2023-07-29T06:23:25;22.10;99.90
13389;DHT22;6764;53.250;10.410;2023-07-29T06:25:50;22.10;99.90
13389;DHT22;6764;53.250;10.410;2023-07-29T06:28:16;22.10;99.90
13389;DHT22;6764;53.250;10.410;2023-07-29T06:30:42;22.10;99.90
13389;DHT22;6764;53.250;10.410;2023-07-29T06:33:07;22.20;99.90
13389;DHT22;6764;53.250;10.410;2023-07-29T06:35:34;22.50;99.90
13389;DHT22;6764;53.250;10.410;2023-07-29T06:37:59;22.70;99.90
13389;DHT22;6764;53.250;10.410;2023-07-29T06:40:25;23.40;99.90
13389;DHT22;6764;53.250;10.410;2023-07-29T06:42:50;24.30;99.90
13389;DHT22;6764;53.250;10.410;2023-07-29T06:45:17;25.20;99.90
13389;DHT22;6764;53.250;10.410;2023-07-29T06:47:42;25.50;99.90
13389;DHT22;6764;53.250;10.410;2023-07-29T06:50:08;25.70;99.90
13389;DHT22;6764;53.250;10.410;2023-07-29T06:52:34;26.20;99.90
13389;DHT22;6764;53.250;10.410;2023-07-29T06:55:00;27.30;99.90
13389;DHT22;6764;53.250;10.410;2023-07-29T06:57:25;28.40;99.90
13389;DHT22;6764;53.250;10.410;2023-07-29T06:59:51;28.90;99.90
13389;DHT22;6764;53.250;10.410;2023-07-29T07:02:16;28.50;99.90
13389;DHT22;6764;53.250;10.410;2023-07-29T07:04:42;29.10;99.90
13389;DHT22;6764;53.250;10.410;2023-07-29T07:07:07;30.10;99.90
13389;DHT22;6764;53.250;10.410;2023-07-29T07:09:33;31.00;99.90
13389;DHT22;6764;53.250;10.410;2023-07-29T07:11:59;31.50;99.90
13389;DHT22;6764;53.250;10.410;2023-07-29T07:14:24;31.90;99.90
13389;DHT22;6764;53.250;10.410;2023-07-29T07:16:51;32.20;99.90
13389;DHT22;6764;53.250;10.410;2023-07-29T07:19:17;32.60;99.90
13389;DHT22;6764;53.250;10.410;2023-07-29T07:21:43;32.60;99.90
13389;DHT22;6764;53.250;10.410;2023-07-29T07:24:08;32.10;99.90
13389;DHT22;6764;53.250;10.410;2023-07-29T07:26:34;31.50;99.90
13389;DHT22;6764;53.250;10.410;2023-07-29T07:29:00;30.90;99.90
13389;DHT22;6764;53.250;10.410;2023-07-29T07:31:25;30.00;99.90
13389;DHT22;6764;53.250;10.410;2023-07-29T07:33:51;29.30;99.90
13389;DHT22;6764;53.250;10.410;2023-07-29T07:36:16;28.10;99.90
13389;DHT22;6764;53.250;10.410;2023-07-29T07:38:42;27.30;99.90
13389;DHT22;6764;53.250;10.410;2023-07-29T07:41:08;26.70;99.90
13389;DHT22;6764;53.250;10.410;2023-07-29T07:43:33;26.20;99.90
13389;DHT22;6764;53.250;10.410;2023-07-29T07:46:00;25.50;99.90
13389;DHT22;6764;53.250;10.410;2023-07-29T07:48:27;25.30;99.90
13389;DHT22;6764;53.250;10.410;2023-07-29T07:50:52;25.10;99.90
13389;DHT22;6764;53.250;10.410;2023-07-29T07:53:18;25.00;99.90
13389;DHT22;6764;53.250;10.410;2023-07-29T07:55:45;25.00;99.90
13389;DHT22;6764;53.250;10.410;2023-07-29T07:58:11;25.00;99.90
13389;DHT22;6764;53.250;10.410;2023-07-29T08:00:36;25.20;99.90
13389;DHT22;6764;53.250;10.410;2023-07-29T08:03:02;25.20;99.90
13389;DHT22;6764;53.250;10.410;2023-07-29T08:05:27;25.20;99.90
13389;DHT22;6764;53.250;10.410;2023-07-29T08:07:53;25.20;99.90
13389;DHT22;6764;53.250;10.410;2023-07-29T08:10:19;25.40;99.90
13389;DHT22;6764;53.250;10.410;2023-07-29T08:12:44;25.40;99.90
13389;DHT22;6764;53.250;10.410;2023-07-29T08:15:10;25.20;99.90
13389;DHT22;6764;53.250;10.410;2023-07-29T08:17:35;25.10;99.90
13389;DHT22;6764;53.250;10.410;2023-07-29T08:20:01;24.90;99.90
13389;DHT22;6764;53.250;10.410;2023-07-29T08:22:27;24.60;99.90
13389;DHT22;6764;53.250;10.410;2023-07-29T08:24:52;24.50;99.90
13389;DHT22;6764;53.250;10.410;2023-07-29T08:27:18;24.40;99.90
13389;DHT22;6764;53.250;10.410;2023-07-29T08:29:43;24.20;99.90
13389;DHT22;6764;53.250;10.410;2023-07-29T08:32:09;24.20;99.90
13389;DHT22;6764;53.250;10.410;2023-07-29T08:34:35;24.20;99.90
13389;DHT22;6764;53.250;10.410;2023-07-29T08:37:01;24.10;99.90
13389;DHT22;6764;53.250;10.410;2023-07-29T08:39:27;24.10;99.90
13389;DHT22;6764;53.250;10.410;2023-07-29T08:42:07;24.00;99.90
13389;DHT22;6764;53.250;10.410;2023-07-29T08:44:44;23.90;99.90
13389;DHT22;6764;53.250;10.410;2023-07-29T08:47:11;23.70;99.90
13389;DHT22;6764;53.250;10.410;2023-07-29T08:49:39;23.60;99.90
13389;DHT22;6764;53.250;10.410;2023-07-29T08:52:07;23.60;99.90
13389;DHT22;6764;53.250;10.410;2023-07-29T08:54:32;23.30;99.90
13389;DHT22;6764;53.250;10.410;2023-07-29T08:56:59;23.20;99.90
13389;DHT22;6764;53.250;10.410;2023-07-29T08:59:25;23.20;99.90
13389;DHT22;6764;53.250;10.410;2023-07-29T09:01:52;23.10;99.90
13389;DHT22;6764;53.250;10.410;2023-07-29T09:04:21;23.00;99.90
13389;DHT22;6764;53.250;10.410;2023-07-29T09:06:50;22.90;99.90
13389;DHT22;6764;53.250;10.410;2023-07-29T09:09:16;22.80;99.90
13389;DHT22;6764;53.250;10.410;2023-07-29T09:11:41;22.80;99.90
13389;DHT22;6764;53.250;10.410;2023-07-29T09:14:07;22.80;99.90
13389;DHT22;6764;53.250;10.410;2023-07-29T09:16:33;22.80;99.90
13389;DHT22;6764;53.250;10.410;2023-07-29T09:19:02;22.80;99.90
13389;DHT22;6764;53.250;10.410;2023-07-29T09:21:29;22.80;99.90
13389;DHT22;6764;53.250;10.410;2023-07-29T09:23:55;22.60;99.90
13389;DHT22;6764;53.250;10.410;2023-07-29T09:26:25;22.30;99.90
13389;DHT22;6764;53.250;10.410;2023-07-29T09:28:56;22.10;99.90
13389;DHT22;6764;53.250;10.410;2023-07-29T09:31:24;21.90;99.90
13389;DHT22;6764;53.250;10.410;2023-07-29T09:33:50;21.70;99.90
13389;DHT22;6764;53.250;10.410;2023-07-29T09:36:21;21.50;99.90
13389;DHT22;6764;53.250;10.410;2023-07-29T09:38:46;21.30;99.90
13389;DHT22;6764;53.250;10.410;2023-07-29T09:41:13;21.30;99.90
13389;DHT22;6764;53.250;10.410;2023-07-29T09:43:40;21.30;99.90
13389;DHT22;6764;53.250;10.410;2023-07-29T09:46:06;21.20;99.90
13389;DHT22;6764;53.250;10.410;2023-07-29T09:48:36;21.20;99.90
13389;DHT22;6764;53.250;10.410;2023-07-29T09:51:12;21.20;99.90
13389;DHT22;6764;53.250;10.410;2023-07-29T09:53:43;21.20;99.90
13389;DHT22;6764;53.250;10.410;2023-07-29T09:56:09;21.30;99.90
13389;DHT22;6764;53.250;10.410;2023-07-29T09:58:35;21.40;99.90
13389;DHT22;6764;53.250;10.410;2023-07-29T10:01:06;21.50;99.90
13389;DHT22;6764;53.250;10.410;2023-07-29T10:03:32;21.70;99.90
13389;DHT22;6764;53.250;10.410;2023-07-29T10:06:03;21.90;99.90
13389;DHT22;6764;53.250;10.410;2023-07-29T10:08:32;22.10;99.90
13389;DHT22;6764;53.250;10.410;2023-07-29T10:11:01;22.20;99.90
13389;DHT22;6764;53.250;10.410;2023-07-29T10:13:27;22.20;99.90
13389;DHT22;6764;53.250;10.410;2023-07-29T10:15:56;22.30;99.90
13389;DHT22;6764;53.250;10.410;2023-07-29T10:18:23;22.20;99.90
13389;DHT22;6764;53.250;10.410;2023-07-29T10:20:52;22.30;99.90
13389;DHT22;6764;53.250;10.410;2023-07-29T10:23:21;22.20;99.90
13389;DHT22;6764;53.250;10.410;2023-07-29T10:25:54;22.30;99.90
13389;DHT22;6764;53.250;10.410;2023-07-29T10:28:23;22.40;99.90
13389;DHT22;6764;53.250;10.410;2023-07-29T10:30:52;22.60;99.90
13389;DHT22;6764;53.250;10.410;2023-07-29T10:33:17;22.90;99.90
13389;DHT22;6764;53.250;10.410;2023-07-29T10:35:43;23.10;99.90
13389;DHT22;6764;53.250;10.410;2023-07-29T10:38:09;23.30;99.90
13389;DHT22;6764;53.250;10.410;2023-07-29T10:41:08;23.50;99.90
13389;DHT22;6764;53.250;10.410;2023-07-29T10:43:35;23.80;99.90
13389;DHT22;6764;53.250;10.410;2023-07-29T10:46:19;24.10;99.90
13389;DHT22;6764;53.250;10.410;2023-07-29T10:48:56;24.40;99.90
13389;DHT22;6764;53.250;10.410;2023-07-29T10:51:35;24.60;99.90
13389;DHT22;6764;53.250;10.410;2023-07-29T10:54:09;24.80;99.90
13389;DHT22;6764;53.250;10.410;2023-07-29T10:56:36;24.90;99.90
13389;DHT22;6764;53.250;10.410;2023-07-29T10:59:31;24.80;99.90
13389;DHT22;6764;53.250;10.410;2023-07-29T11:01:59;24.80;99.90
13389;DHT22;6764;53.250;10.410;2023-07-29T11:04:29;24.80;99.90
13389;DHT22;6764;53.250;10.410;2023-07-29T11:09:51;24.40;99.90
13389;DHT22;6764;53.250;10.410;2023-07-29T11:17:49;24.40;99.90
13389;DHT22;6764;53.250;10.410;2023-07-29T11:20:17;24.50;99.90
13389;DHT22;6764;53.250;10.410;2023-07-29T11:22:43;24.60;99.90
13389;DHT22;6764;53.250;10.410;2023-07-29T11:25:11;24.60;99.90
13389;DHT22;6764;53.250;10.410;2023-07-29T11:27:38;24.70;99.90
13389;DHT22;6764;53.250;10.410;2023-07-29T11:30:08;24.90;99.90
13389;DHT22;6764;53.250;10.410;2023-07-29T11:32:35;24.80;99.90
13389;DHT22;6764;53.250;10.410;2023-07-29T11:35:02;24.80;99.90
13389;DHT22;6764;53.250;10.410;2023-07-29T11:37:28;24.60;99.90
13389;DHT22;6764;53.250;10.410;2023-07-29T11:39:54;24.50;99.90
13389;DHT22;6764;53.250;10.410;2023-07-29T11:42:20;24.60;99.90
13389;DHT22;6764;53.250;10.410;2023-07-29T11:44:45;24.80;99.90
13389;DHT22;6764;53.250;10.410;2023-07-29T11:47:12;24.80;99.90
13389;DHT22;6764;53.250;10.410;2023-07-29T11:49:41;24.80;99.90
13389;DHT22;6764;53.250;10.410;2023-07-29T11:52:08;24.90;99.90
13389;DHT22;6764;53.250;10.410;2023-07-29T11:54:38;24.80;99.90
13389;DHT22;6764;53.250;10.410;2023-07-29T11:57:08;24.70;99.90
13389;DHT22;6764;53.250;10.410;2023-07-29T11:59:35;24.80;99.90
13389;DHT22;6764;53.250;10.410;2023-07-29T12:02:05;25.20;99.90
13389;DHT22;6764;53.250;10.410;2023-07-29T12:04:32;25.60;99.90
13389;DHT22;6764;53.250;10.410;2023-07-29T12:06:58;25.70;99.90
13389;DHT22;6764;53.250;10.410;2023-07-29T12:09:25;25.60;99.90
13389;DHT22;6764;53.250;10.410;2023-07-29T12:11:52;25.40;99.90
13389;DHT22;6764;53.250;10.410;2023-07-29T12:14:18;25.20;99.90
13389;DHT22;6764;53.250;10.410;2023-07-29T12:16:44;25.00;99.90
13389;DHT22;6764;53.250;10.410;2023-07-29T12:19:13;25.00;99.90
13389;DHT22;6764;53.250;10.410;2023-07-29T12:21:41;25.20;99.90
13389;DHT22;6764;53.250;10.410;2023-07-29T12:24:07;25.40;99.90
13389;DHT22;6764;53.250;10.410;2023-07-29T12:26:33;25.40;99.90
13389;DHT22;6764;53.250;10.410;2023-07-29T12:28:59;25.40;99.90
13389;DHT22;6764;53.250;10.410;2023-07-29T12:31:31;25.40;99.90
13389;DHT22;6764;53.250;10.410;2023-07-29T12:33:58;25.40;99.90
13389;DHT22;6764;53.250;10.410;2023-07-29T12:36:40;25.40;99.90
13389;DHT22;6764;53.250;10.410;2023-07-29T12:39:16;25.60;99.90
13389;DHT22;6764;53.250;10.410;2023-07-29T12:41:41;25.50;99.90
13389;DHT22;6764;53.250;10.410;2023-07-29T12:44:07;25.50;99.90
13389;DHT22;6764;53.250;10.410;2023-07-29T12:46:33;25.60;99.90
13389;DHT22;6764;53.250;10.410;2023-07-29T12:48:58;25.60;99.90
13389;DHT22;6764;53.250;10.410;2023-07-29T12:51:24;25.70;99.90
13389;DHT22;6764;53.250;10.410;2023-07-29T12:53:49;25.60;99.90
13389;DHT22;6764;53.250;10.410;2023-07-29T12:56:15;25.50;99.90
13389;DHT22;6764;53.250;10.410;2023-07-29T12:58:40;25.50;99.90
13389;DHT22;6764;53.250;10.410;2023-07-29T13:01:06;25.50;99.90
13389;DHT22;6764;53.250;10.410;2023-07-29T13:03:32;25.50;99.90
13389;DHT22;6764;53.250;10.410;2023-07-29T13:05:57;25.50;99.90
13389;DHT22;6764;53.250;10.410;2023-07-29T13:08:23;25.50;99.90
13389;DHT22;6764;53.250;10.410;2023-07-29T13:10:48;25.60;99.90
13389;DHT22;6764;53.250;10.410;2023-07-29T13:13:14;25.70;99.90
13389;DHT22;6764;53.250;10.410;2023-07-29T13:15:40;25.90;99.90
13389;DHT22;6764;53.250;10.410;2023-07-29T13:18:05;25.90;99.90
13389;DHT22;6764;53.250;10.410;2023-07-29T13:20:31;26.00;99.90
13389;DHT22;6764;53.250;10.410;2023-07-29T13:22:59;26.00;99.90
13389;DHT22;6764;53.250;10.410;2023-07-29T13:25:24;26.00;99.90
13389;DHT22;6764;53.250;10.410;2023-07-29T13:27:50;26.10;99.90
13389;DHT22;6764;53.250;10.410;2023-07-29T13:30:15;26.20;99.90
13389;DHT22;6764;53.250;10.410;2023-07-29T13:32:41;26.00;99.90
13389;DHT22;6764;53.250;10.410;2023-07-29T13:35:07;26.00;99.90
13389;DHT22;6764;53.250;10.410;2023-07-29T13:37:33;25.80;99.90
13389;DHT22;6764;53.250;10.410;2023-07-29T13:39:58;25.70;99.90
13389;DHT22;6764;53.250;10.410;2023-07-29T13:42:24;25.70;99.90
13389;DHT22;6764;53.250;10.410;2023-07-29T13:44:49;25.80;99.90
13389;DHT22;6764;53.250;10.410;2023-07-29T13:47:15;25.70;99.90
13389;DHT22;6764;53.250;10.410;2023-07-29T13:49:40;25.80;99.90
13389;DHT22;6764;53.250;10.410;2023-07-29T13:52:06;25.90;99.90
13389;DHT22;6764;53.250;10.410;2023-07-29T13:54:32;26.00;99.90
13389;DHT22;6764;53.250;10.410;2023-07-29T13:56:57;26.00;99.90
13389;DHT22;6764;53.250;10.410;2023-07-29T13:59:23;26.00;99.90
13389;DHT22;6764;53.250;10.410;2023-07-29T14:01:49;26.00;99.90
13389;DHT22;6764;53.250;10.410;2023-07-29T14:04:14;25.90;99.90
13389;DHT22;6764;53.250;10.410;2023-07-29T14:06:41;25.90;99.90
13389;DHT22;6764;53.250;10.410;2023-07-29T14:09:06;25.80;99.90
13389;DHT22;6764;53.250;10.410;2023-07-29T14:11:32;25.80;99.90
13389;DHT22;6764;53.250;10.410;2023-07-29T14:13:58;25.80;99.90
13389;DHT22;6764;53.250;10.410;2023-07-29T14:16:24;25.80;99.90
13389;DHT22;6764;53.250;10.410;2023-07-29T14:18:49;25.70;99.90
13389;DHT22;6764;53.250;10.410;2023-07-29T14:21:15;25.70;99.90
13389;DHT22;6764;53.250;10.410;2023-07-29T14:23:40;25.70;99.90
13389;DHT22;6764;53.250;10.410;2023-07-29T14:26:06;25.70;99.90
13389;DHT22;6764;53.250;10.410;2023-07-29T14:28:36;25.60;99.90
13389;DHT22;6764;53.250;10.410;2023-07-29T14:31:01;25.80;99.90
13389;DHT22;6764;53.250;10.410;2023-07-29T14:33:27;25.80;99.90
13389;DHT22;6764;53.250;10.410;2023-07-29T14:35:53;25.80;99.90
13389;DHT22;6764;53.250;10.410;2023-07-29T14:38:19;25.70;99.90
13389;DHT22;6764;53.250;10.410;2023-07-29T14:40:47;25.70;99.90
13389;DHT22;6764;53.250;10.410;2023-07-29T14:43:13;25.70;99.90
13389;DHT22;6764;53.250;10.410;2023-07-29T14:45:39;25.70;99.90
13389;DHT22;6764;53.250;10.410;2023-07-29T14:48:04;25.70;99.90
13389;DHT22;6764;53.250;10.410;2023-07-29T14:50:30;25.70;99.90
13389;DHT22;6764;53.250;10.410;2023-07-29T14:52:56;25.50;99.90
13389;DHT22;6764;53.250;10.410;2023-07-29T14:55:21;25.50;99.90
13389;DHT22;6764;53.250;10.410;2023-07-29T14:57:47;25.50;99.90
13389;DHT22;6764;53.250;10.410;2023-07-29T15:00:13;25.50;99.90
13389;DHT22;6764;53.250;10.410;2023-07-29T15:02:40;25.60;99.90
13389;DHT22;6764;53.250;10.410;2023-07-29T15:05:07;25.70;99.90
13389;DHT22;6764;53.250;10.410;2023-07-29T15:07:32;25.70;99.90
13389;DHT22;6764;53.250;10.410;2023-07-29T15:09:58;25.70;99.90
13389;DHT22;6764;53.250;10.410;2023-07-29T15:12:24;25.70;99.90
13389;DHT22;6764;53.250;10.410;2023-07-29T15:14:49;25.70;99.90
13389;DHT22;6764;53.250;10.410;2023-07-29T15:17:15;25.70;99.90
13389;DHT22;6764;53.250;10.410;2023-07-29T15:19:41;25.70;99.90
13389;DHT22;6764;53.250;10.410;2023-07-29T15:22:06;25.70;99.90
13389;DHT22;6764;53.250;10.410;2023-07-29T15:24:32;25.70;99.90
13389;DHT22;6764;53.250;10.410;2023-07-29T15:26:57;25.80;99.90
13389;DHT22;6764;53.250;10.410;2023-07-29T15:29:23;26.00;99.90
13389;DHT22;6764;53.250;10.410;2023-07-29T15:31:48;25.90;99.90
13389;DHT22;6764;53.250;10.410;2023-07-29T15:34:14;25.80;99.90
13389;DHT22;6764;53.250;10.410;2023-07-29T15:36:40;25.90;99.90
13389;DHT22;6764;53.250;10.410;2023-07-29T15:39:07;25.80;99.90
13389;DHT22;6764;53.250;10.410;2023-07-29T15:41:33;25.70;99.90
13389;DHT22;6764;53.250;10.410;2023-07-29T15:44:00;25.60;99.90
13389;DHT22;6764;53.250;10.410;2023-07-29T15:46:25;25.60;99.90